Hlavní strana
METAR-TAF:

METAR-TAF

Letiště :

Sinop, Turecko

zeměpisná šířka: 42-00-57N, zeměpisná délka: 035-03-59E, výška: 7 m

Aktuální stav počasí

Zpráva byla vytvořena před 3 hodinami a 49 minutami, v 12:50 UTC
Západoseverozápadní vítr 19 kt
Teplota 0°C
Vlhkost vzduchu 100%
Tlak 1019 hPa
Viditelnost: 1200 m
sníh, kouřmo

METAR: LTCM 181250Z 29019KT 1200 R23/1100U R05/1200U SN BR VV007 M00/M00 Q1019

Čas: 19:39 (16:39 UTC)

Předpověď počasí

Zpráva byla vytvořena před 2 hodinami a 59 minutami, v 13:40 UTC
Předpověď platná od 18 v 15 UTC do 18 v 24 UTC
Západoseverozápadní vítr 18 kt
Viditelnost: 1200 m
Polojasno ve výšce 800 ft
Oblačno až skoro zataženo ve výšce 2500 ft
Oblačno až skoro zataženo ve výšce 8000 ft
sníh
Změna
od 18 v 16 UTC do 18 v 18 UTC
Viditelnost 10 km a více

TAF: LTCM 181340Z 1815/1824 30018KT 1200 SN SCT008 BKN025 BKN080 BECMG 1816/1818 9999 NSW

Stav a předpovědi počasí z více než 4 000 letišť (zprávy METAR a TAF).

Červené a žluté tečky na mapě představují dostupné meteorologické stanice.

Když kurzor umístíte na tečku, zobrazí se název stanice.

Pak kliknutím zobrazíte stav a předpověď počasí.

Chcete-li změnit mapu, kliknutím na zelené tlačítko se znaménkem +mapu přiblížíte, kliknutím na zelené tlačítko se znaménkem – mapu oddálíte a kliknutím na zelené šipky přejdete na sousední mapy.


METAR-TAF: